createdAt,value
2016-11-07T00:00:02.084Z,53
2016-11-07T00:10:02.085Z,53.5
2016-11-07T00:20:02.104Z,53
2016-11-07T00:30:02.094Z,53
2016-11-07T00:40:02.094Z,53
2016-11-07T00:50:02.103Z,53.5
2016-11-07T01:00:02.084Z,53.5
2016-11-07T01:10:02.103Z,53.5
2016-11-07T01:20:02.083Z,53
2016-11-07T01:30:02.116Z,53
2016-11-07T01:40:02.097Z,53.5
2016-11-07T01:50:02.082Z,53
2016-11-07T02:00:01.108Z,53
2016-11-07T02:10:02.096Z,53
2016-11-07T02:20:02.085Z,53
2016-11-07T02:30:10.373Z,53.5
2016-11-07T02:40:10.373Z,53
2016-11-07T02:50:03.333Z,53.5
2016-11-07T03:00:02.088Z,53.5
2016-11-07T03:10:02.084Z,53
2016-11-07T03:20:02.087Z,53.5
2016-11-07T03:30:02.088Z,53
2016-11-07T03:40:02.086Z,53
2016-11-07T03:50:02.095Z,53.5
2016-11-07T04:00:02.086Z,53.5
2016-11-07T04:10:02.086Z,53.5
2016-11-07T04:20:02.086Z,53
2016-11-07T04:30:02.069Z,53
2016-11-07T04:40:02.086Z,53.5
2016-11-07T04:50:02.088Z,53
2016-11-07T05:00:02.087Z,53.5
2016-11-07T05:10:02.096Z,53
2016-11-07T05:20:02.086Z,53
2016-11-07T05:30:02.086Z,53
2016-11-07T05:40:02.114Z,54.1
2016-11-07T05:50:02.089Z,53
2016-11-07T06:00:02.088Z,54.1
2016-11-07T06:10:02.093Z,53
2016-11-07T06:20:02.088Z,53.5
2016-11-07T06:30:02.086Z,53
2016-11-07T06:40:02.094Z,53
2016-11-07T06:50:02.086Z,53
2016-11-07T07:00:02.114Z,53
2016-11-07T07:10:02.095Z,53.5
2016-11-07T07:20:02.095Z,54.1
2016-11-07T07:30:02.088Z,53.5
2016-11-07T07:40:02.115Z,53.5
2016-11-07T07:50:02.086Z,53
2016-11-07T08:00:02.089Z,53.5
2016-11-07T08:10:02.088Z,53.5
2016-11-07T08:20:02.086Z,53
2016-11-07T08:30:02.103Z,53
2016-11-07T08:40:02.095Z,53
2016-11-07T08:50:02.085Z,53
2016-11-07T09:00:02.095Z,53.5
2016-11-07T09:10:02.085Z,53.5
2016-11-07T09:20:02.084Z,52.5
2016-11-07T09:30:02.098Z,53
2016-11-07T09:40:02.097Z,53
2016-11-07T09:50:02.095Z,53
2016-11-07T10:00:02.094Z,53
2016-11-07T10:10:02.088Z,53
2016-11-07T10:20:02.105Z,53
2016-11-07T10:30:02.086Z,53
2016-11-07T10:40:02.083Z,53
2016-11-07T10:50:02.087Z,53
2016-11-07T11:00:02.099Z,53
2016-11-07T11:10:02.162Z,53
2016-11-07T11:20:02.089Z,53
2016-11-07T11:30:02.085Z,52.5
2016-11-07T11:40:02.083Z,52.5
2016-11-07T11:50:02.083Z,52.5
2016-11-07T12:00:02.089Z,51.9
2016-11-07T12:10:02.085Z,51.9
2016-11-07T12:20:02.083Z,51.4
2016-11-07T12:30:02.093Z,51.9
2016-11-07T12:40:02.088Z,51.4
2016-11-07T12:50:02.104Z,51.4
2016-11-07T13:00:02.127Z,51.4
2016-11-07T13:10:02.084Z,51.4
2016-11-07T13:20:02.105Z,50.8
2016-11-07T13:30:02.117Z,50.8
2016-11-07T13:40:02.089Z,51.4
2016-11-07T13:50:02.090Z,50.8
2016-11-07T14:00:02.090Z,50.8
2016-11-07T14:10:02.090Z,50.8
2016-11-07T14:20:02.087Z,50.3
2016-11-07T14:30:02.086Z,50.3
2016-11-07T14:40:02.086Z,50.8
2016-11-07T14:50:02.109Z,50.8
2016-11-07T15:00:02.095Z,50.3
2016-11-07T15:10:02.087Z,50.8
2016-11-07T15:20:02.115Z,50.8
2016-11-07T15:30:02.086Z,50.8
2016-11-07T15:40:02.106Z,51.4
2016-11-07T15:50:02.108Z,51.4
2016-11-07T16:00:02.094Z,50.8
2016-11-07T16:10:02.088Z,51.4
2016-11-07T16:20:02.085Z,50.8
2016-11-07T16:30:02.096Z,50.8
2016-11-07T16:40:02.121Z,50.8
2016-11-07T16:50:02.098Z,49.8
2016-11-07T17:00:02.088Z,50.3
2016-11-07T17:10:02.097Z,50.3
2016-11-07T17:20:02.100Z,49.8
2016-11-07T17:30:02.093Z,49.8
2016-11-07T17:40:02.124Z,49.8
2016-11-07T17:50:02.115Z,49.8
2016-11-07T18:00:02.099Z,49.2
2016-11-07T18:10:02.095Z,49.2
2016-11-07T18:20:02.087Z,49.2
2016-11-07T18:30:02.099Z,48.7
2016-11-07T18:40:02.137Z,48.7
2016-11-07T18:50:02.130Z,48.7
2016-11-07T19:00:02.092Z,48.7
2016-11-07T19:10:02.118Z,48.7
2016-11-07T19:20:02.124Z,48.7
2016-11-07T19:30:02.088Z,48.7
2016-11-07T19:40:02.087Z,48.2
2016-11-07T19:50:02.089Z,48.7
2016-11-07T20:00:02.146Z,48.7
2016-11-07T20:10:02.122Z,48.7
2016-11-07T20:20:02.076Z,48.7
2016-11-07T20:30:02.089Z,48.7
2016-11-07T20:40:10.461Z,47.6
2016-11-07T20:50:10.377Z,48.7
2016-11-07T21:00:10.862Z,47.6
2016-11-07T21:10:07.512Z,47.6
2016-11-07T21:20:10.381Z,47.1
2016-11-07T21:30:02.134Z,47.1
2016-11-07T21:40:02.085Z,47.6
2016-11-07T21:50:02.086Z,47.6
2016-11-07T22:00:02.099Z,48.2
2016-11-07T22:10:02.087Z,48.7
2016-11-07T22:20:02.118Z,48.2
2016-11-07T22:30:02.086Z,47.6
2016-11-07T22:40:02.091Z,48.7
2016-11-07T22:50:02.085Z,48.7
2016-11-07T23:00:02.185Z,48.7
2016-11-07T23:10:02.085Z,48.7
2016-11-07T23:20:02.088Z,48.7
2016-11-07T23:30:02.085Z,48.7
2016-11-07T23:40:02.123Z,48.7
2016-11-07T23:50:02.087Z,49.2
